sensor_id;sensor_type;location;lat;lon;timestamp;pressure;altitude;pressure_sealevel;temperature;humidity
52591;BME280;38483;42.620;25.394;2023-03-01T00:02:16;97715.41;;;7.10;93.47
52591;BME280;38483;42.620;25.394;2023-03-01T00:04:43;97710.50;;;7.00;93.99
52591;BME280;38483;42.620;25.394;2023-03-01T00:07:10;97708.56;;;7.11;93.92
52591;BME280;38483;42.620;25.394;2023-03-01T00:09:37;97690.75;;;7.00;94.14
52591;BME280;38483;42.620;25.394;2023-03-01T00:12:04;97693.38;;;6.97;94.02
52591;BME280;38483;42.620;25.394;2023-03-01T00:14:31;97689.09;;;6.98;94.66
52591;BME280;38483;42.620;25.394;2023-03-01T00:16:58;97676.97;;;7.01;93.92
52591;BME280;38483;42.620;25.394;2023-03-01T00:19:25;97674.25;;;6.69;95.20
52591;BME280;38483;42.620;25.394;2023-03-01T00:21:52;97672.16;;;6.86;95.96
52591;BME280;38483;42.620;25.394;2023-03-01T00:24:19;97663.88;;;6.74;95.94
52591;BME280;38483;42.620;25.394;2023-03-01T00:26:46;97653.09;;;6.53;97.61
52591;BME280;38483;42.620;25.394;2023-03-01T00:29:13;97647.31;;;6.85;96.33
52591;BME280;38483;42.620;25.394;2023-03-01T00:31:40;97644.69;;;6.88;96.43
52591;BME280;38483;42.620;25.394;2023-03-01T00:34:09;97636.59;;;6.65;95.61
52591;BME280;38483;42.620;25.394;2023-03-01T00:36:37;97629.63;;;6.69;96.99
52591;BME280;38483;42.620;25.394;2023-03-01T00:39:07;97630.28;;;6.78;97.62
52591;BME280;38483;42.620;25.394;2023-03-01T00:41:34;97616.38;;;6.87;96.41
52591;BME280;38483;42.620;25.394;2023-03-01T00:44:01;97616.31;;;6.90;96.12
52591;BME280;38483;42.620;25.394;2023-03-01T00:46:28;97620.47;;;6.95;96.47
52591;BME280;38483;42.620;25.394;2023-03-01T00:48:57;97612.88;;;6.89;95.69
52591;BME280;38483;42.620;25.394;2023-03-01T00:51:26;97620.69;;;6.85;94.54
52591;BME280;38483;42.620;25.394;2023-03-01T00:53:58;97622.38;;;6.87;94.93
52591;BME280;38483;42.620;25.394;2023-03-01T00:56:25;97612.25;;;6.78;95.40
52591;BME280;38483;42.620;25.394;2023-03-01T00:58:53;97615.81;;;6.73;95.57
52591;BME280;38483;42.620;25.394;2023-03-01T01:01:25;97627.78;;;6.75;94.67
52591;BME280;38483;42.620;25.394;2023-03-01T01:03:58;97633.53;;;6.86;94.43
52591;BME280;38483;42.620;25.394;2023-03-01T01:06:29;97635.59;;;6.71;94.65
52591;BME280;38483;42.620;25.394;2023-03-01T01:08:57;97646.47;;;6.83;94.69
52591;BME280;38483;42.620;25.394;2023-03-01T01:11:26;97643.00;;;6.86;93.74
52591;BME280;38483;42.620;25.394;2023-03-01T01:13:54;97648.22;;;6.83;94.13
52591;BME280;38483;42.620;25.394;2023-03-01T01:16:24;97644.03;;;6.77;93.36
52591;BME280;38483;42.620;25.394;2023-03-01T01:18:52;97652.66;;;6.75;93.01
52591;BME280;38483;42.620;25.394;2023-03-01T01:21:21;97655.63;;;6.56;93.75
52591;BME280;38483;42.620;25.394;2023-03-01T01:23:48;97655.25;;;6.75;93.51
52591;BME280;38483;42.620;25.394;2023-03-01T01:26:19;97637.06;;;6.41;93.59
52591;BME280;38483;42.620;25.394;2023-03-01T01:28:48;97659.38;;;6.40;95.26
52591;BME280;38483;42.620;25.394;2023-03-01T01:31:15;97633.38;;;6.11;97.38
52591;BME280;38483;42.620;25.394;2023-03-01T01:33:43;97656.25;;;6.25;96.85
52591;BME280;38483;42.620;25.394;2023-03-01T01:36:10;97650.19;;;6.27;97.23
52591;BME280;38483;42.620;25.394;2023-03-01T01:38:38;97651.91;;;6.28;97.16
52591;BME280;38483;42.620;25.394;2023-03-01T01:41:06;97631.34;;;6.27;96.29
52591;BME280;38483;42.620;25.394;2023-03-01T01:43:41;97629.53;;;6.32;96.88
52591;BME280;38483;42.620;25.394;2023-03-01T01:46:31;97624.19;;;6.42;96.74
52591;BME280;38483;42.620;25.394;2023-03-01T01:49:02;97606.69;;;6.17;96.78
52591;BME280;38483;42.620;25.394;2023-03-01T01:51:39;97626.03;;;6.36;96.43
52591;BME280;38483;42.620;25.394;2023-03-01T01:54:16;97629.13;;;6.53;96.11
52591;BME280;38483;42.620;25.394;2023-03-01T01:56:49;97624.34;;;6.75;94.94
52591;BME280;38483;42.620;25.394;2023-03-01T01:59:19;97629.09;;;6.94;94.73
52591;BME280;38483;42.620;25.394;2023-03-01T02:01:52;97616.03;;;7.02;93.33
52591;BME280;38483;42.620;25.394;2023-03-01T02:04:20;97620.91;;;7.14;92.67
52591;BME280;38483;42.620;25.394;2023-03-01T02:06:53;97609.03;;;7.07;93.55
52591;BME280;38483;42.620;25.394;2023-03-01T02:09:23;97618.03;;;7.26;93.48
52591;BME280;38483;42.620;25.394;2023-03-01T02:11:51;97616.53;;;7.17;93.46
52591;BME280;38483;42.620;25.394;2023-03-01T02:14:18;97625.84;;;7.23;92.10
52591;BME280;38483;42.620;25.394;2023-03-01T02:16:46;97623.44;;;7.17;92.47
52591;BME280;38483;42.620;25.394;2023-03-01T02:19:28;97626.69;;;7.23;91.89
52591;BME280;38483;42.620;25.394;2023-03-01T02:22:30;97621.66;;;7.17;91.57
52591;BME280;38483;42.620;25.394;2023-03-01T02:25:12;97619.13;;;7.16;91.93
52591;BME280;38483;42.620;25.394;2023-03-01T02:30:30;97618.44;;;7.09;91.80
52591;BME280;38483;42.620;25.394;2023-03-01T02:33:00;97621.16;;;7.03;92.36
52591;BME280;38483;42.620;25.394;2023-03-01T02:35:38;97624.56;;;7.04;92.80
52591;BME280;38483;42.620;25.394;2023-03-01T02:38:07;97621.00;;;7.11;91.98
52591;BME280;38483;42.620;25.394;2023-03-01T02:40:37;97621.84;;;7.10;91.95
52591;BME280;38483;42.620;25.394;2023-03-01T02:43:06;97628.00;;;7.03;91.81
52591;BME280;38483;42.620;25.394;2023-03-01T02:45:35;97616.09;;;6.99;91.31
52591;BME280;38483;42.620;25.394;2023-03-01T02:48:02;97622.66;;;7.12;92.34
52591;BME280;38483;42.620;25.394;2023-03-01T02:55:59;97627.06;;;7.08;92.05
52591;BME280;38483;42.620;25.394;2023-03-01T02:58:26;97625.94;;;6.82;92.96
52591;BME280;38483;42.620;25.394;2023-03-01T03:00:53;97618.88;;;6.90;92.64
52591;BME280;38483;42.620;25.394;2023-03-01T03:03:21;97631.09;;;6.80;93.51
52591;BME280;38483;42.620;25.394;2023-03-01T03:05:48;97627.88;;;6.71;94.60
52591;BME280;38483;42.620;25.394;2023-03-01T03:08:15;97618.84;;;6.51;94.06
52591;BME280;38483;42.620;25.394;2023-03-01T03:10:51;97618.41;;;6.31;95.10
52591;BME280;38483;42.620;25.394;2023-03-01T03:13:18;97609.00;;;6.30;94.24
52591;BME280;38483;42.620;25.394;2023-03-01T03:15:45;97613.38;;;6.25;95.47
52591;BME280;38483;42.620;25.394;2023-03-01T03:18:16;97609.22;;;6.18;94.81
52591;BME280;38483;42.620;25.394;2023-03-01T03:20:43;97611.06;;;6.13;95.75
52591;BME280;38483;42.620;25.394;2023-03-01T03:23:11;97613.47;;;6.21;94.79
52591;BME280;38483;42.620;25.394;2023-03-01T03:25:38;97609.19;;;6.21;94.40
52591;BME280;38483;42.620;25.394;2023-03-01T03:28:06;97614.84;;;6.38;95.16
52591;BME280;38483;42.620;25.394;2023-03-01T03:30:38;97616.78;;;6.27;95.44
52591;BME280;38483;42.620;25.394;2023-03-01T03:33:06;97612.03;;;6.08;95.22
52591;BME280;38483;42.620;25.394;2023-03-01T03:35:38;97611.84;;;6.17;95.27
52591;BME280;38483;42.620;25.394;2023-03-01T03:38:06;97616.47;;;5.98;95.84
52591;BME280;38483;42.620;25.394;2023-03-01T03:40:38;97617.06;;;6.14;95.42
52591;BME280;38483;42.620;25.394;2023-03-01T03:43:24;97617.16;;;6.08;95.14
52591;BME280;38483;42.620;25.394;2023-03-01T03:45:51;97627.66;;;5.96;97.03
52591;BME280;38483;42.620;25.394;2023-03-01T03:48:19;97618.84;;;6.09;96.66
52591;BME280;38483;42.620;25.394;2023-03-01T03:50:54;97627.28;;;6.15;96.02
52591;BME280;38483;42.620;25.394;2023-03-01T03:53:23;97616.47;;;5.98;96.45
52591;BME280;38483;42.620;25.394;2023-03-01T03:55:51;97615.47;;;6.07;96.88
52591;BME280;38483;42.620;25.394;2023-03-01T03:58:21;97608.59;;;6.07;97.57
52591;BME280;38483;42.620;25.394;2023-03-01T04:01:07;97620.69;;;6.02;97.30
52591;BME280;38483;42.620;25.394;2023-03-01T04:03:34;97622.31;;;6.08;97.66
52591;BME280;38483;42.620;25.394;2023-03-01T04:06:02;97627.44;;;6.08;97.33
52591;BME280;38483;42.620;25.394;2023-03-01T04:08:31;97625.31;;;5.82;98.77
52591;BME280;38483;42.620;25.394;2023-03-01T04:11:03;97615.22;;;5.71;99.54
52591;BME280;38483;42.620;25.394;2023-03-01T04:13:50;97626.84;;;5.94;99.08
52591;BME280;38483;42.620;25.394;2023-03-01T04:16:18;97636.88;;;6.07;98.97
52591;BME280;38483;42.620;25.394;2023-03-01T04:18:45;97626.47;;;6.13;97.76
52591;BME280;38483;42.620;25.394;2023-03-01T04:21:13;97625.38;;;6.25;98.74
52591;BME280;38483;42.620;25.394;2023-03-01T04:23:40;97619.50;;;6.20;98.19
52591;BME280;38483;42.620;25.394;2023-03-01T04:26:07;97621.50;;;6.04;98.72
52591;BME280;38483;42.620;25.394;2023-03-01T04:28:41;97619.78;;;6.05;99.24
52591;BME280;38483;42.620;25.394;2023-03-01T04:31:14;97597.13;;;5.77;99.31
52591;BME280;38483;42.620;25.394;2023-03-01T04:34:02;97621.56;;;6.00;99.67
52591;BME280;38483;42.620;25.394;2023-03-01T04:36:29;97615.41;;;6.10;99.50
52591;BME280;38483;42.620;25.394;2023-03-01T04:38:57;97609.19;;;5.74;100.00
52591;BME280;38483;42.620;25.394;2023-03-01T04:41:25;97610.47;;;5.99;99.45
52591;BME280;38483;42.620;25.394;2023-03-01T04:43:52;97618.47;;;6.28;99.38
52591;BME280;38483;42.620;25.394;2023-03-01T04:46:20;97613.13;;;6.37;98.62
52591;BME280;38483;42.620;25.394;2023-03-01T04:48:48;97614.84;;;6.37;98.06
52591;BME280;38483;42.620;25.394;2023-03-01T04:51:15;97594.41;;;6.32;97.74
52591;BME280;38483;42.620;25.394;2023-03-01T04:53:43;97607.72;;;6.49;97.78
52591;BME280;38483;42.620;25.394;2023-03-01T04:56:11;97601.91;;;6.41;97.51
52591;BME280;38483;42.620;25.394;2023-03-01T04:58:40;97589.81;;;6.46;97.79
52591;BME280;38483;42.620;25.394;2023-03-01T05:01:09;97586.59;;;6.35;97.56
52591;BME280;38483;42.620;25.394;2023-03-01T05:03:47;97592.31;;;6.49;97.65
52591;BME280;38483;42.620;25.394;2023-03-01T05:06:16;97608.41;;;6.57;97.03
52591;BME280;38483;42.620;25.394;2023-03-01T05:08:43;97606.69;;;6.58;96.72
52591;BME280;38483;42.620;25.394;2023-03-01T05:11:11;97572.78;;;6.39;97.10
52591;BME280;38483;42.620;25.394;2023-03-01T05:13:39;97614.56;;;6.52;95.73
52591;BME280;38483;42.620;25.394;2023-03-01T05:16:07;97613.69;;;6.51;95.88
52591;BME280;38483;42.620;25.394;2023-03-01T05:18:39;97610.44;;;6.43;96.88
52591;BME280;38483;42.620;25.394;2023-03-01T05:21:12;97615.38;;;6.54;96.82
52591;BME280;38483;42.620;25.394;2023-03-01T05:23:39;97620.63;;;6.48;96.70
52591;BME280;38483;42.620;25.394;2023-03-01T05:26:07;97619.47;;;6.63;96.19
52591;BME280;38483;42.620;25.394;2023-03-01T05:28:48;97610.03;;;6.62;95.94
52591;BME280;38483;42.620;25.394;2023-03-01T05:31:15;97624.53;;;6.67;95.30
52591;BME280;38483;42.620;25.394;2023-03-01T05:33:42;97612.66;;;6.60;96.45
52591;BME280;38483;42.620;25.394;2023-03-01T05:36:10;97616.84;;;6.66;96.69
52591;BME280;38483;42.620;25.394;2023-03-01T05:38:37;97613.13;;;6.79;96.15
52591;BME280;38483;42.620;25.394;2023-03-01T05:41:04;97618.31;;;6.77;95.28
52591;BME280;38483;42.620;25.394;2023-03-01T05:43:31;97611.44;;;6.78;96.70
52591;BME280;38483;42.620;25.394;2023-03-01T05:46:01;97619.28;;;6.72;96.07
52591;BME280;38483;42.620;25.394;2023-03-01T05:48:28;97615.19;;;6.62;95.86
52591;BME280;38483;42.620;25.394;2023-03-01T05:50:59;97623.69;;;6.67;96.23
52591;BME280;38483;42.620;25.394;2023-03-01T05:53:26;97628.66;;;6.74;96.14
52591;BME280;38483;42.620;25.394;2023-03-01T05:55:53;97620.88;;;6.77;95.39
52591;BME280;38483;42.620;25.394;2023-03-01T05:58:20;97619.22;;;6.75;95.16
52591;BME280;38483;42.620;25.394;2023-03-01T06:00:50;97621.00;;;6.71;95.82
52591;BME280;38483;42.620;25.394;2023-03-01T06:03:20;97620.34;;;6.62;95.63
52591;BME280;38483;42.620;25.394;2023-03-01T06:05:47;97617.78;;;6.62;95.96
52591;BME280;38483;42.620;25.394;2023-03-01T06:08:14;97626.25;;;6.67;96.13
52591;BME280;38483;42.620;25.394;2023-03-01T06:10:41;97613.56;;;6.57;96.11
52591;BME280;38483;42.620;25.394;2023-03-01T06:13:08;97623.84;;;6.57;96.66
52591;BME280;38483;42.620;25.394;2023-03-01T06:15:35;97629.94;;;6.55;95.50
52591;BME280;38483;42.620;25.394;2023-03-01T06:18:02;97630.72;;;6.58;96.30
52591;BME280;38483;42.620;25.394;2023-03-01T06:20:29;97627.31;;;6.56;95.88
52591;BME280;38483;42.620;25.394;2023-03-01T06:22:57;97625.63;;;6.55;96.08
52591;BME280;38483;42.620;25.394;2023-03-01T06:25:25;97633.28;;;6.58;96.26
52591;BME280;38483;42.620;25.394;2023-03-01T06:27:53;97626.94;;;6.75;94.87
52591;BME280;38483;42.620;25.394;2023-03-01T06:30:25;97628.78;;;6.70;96.27
52591;BME280;38483;42.620;25.394;2023-03-01T06:32:52;97635.56;;;6.72;94.83
52591;BME280;38483;42.620;25.394;2023-03-01T06:35:28;97631.22;;;6.76;95.55
52591;BME280;38483;42.620;25.394;2023-03-01T06:37:59;97619.88;;;6.83;95.95
52591;BME280;38483;42.620;25.394;2023-03-01T06:40:28;97631.63;;;6.96;95.39
52591;BME280;38483;42.620;25.394;2023-03-01T06:42:55;97625.63;;;6.95;95.33
52591;BME280;38483;42.620;25.394;2023-03-01T06:45:22;97629.91;;;6.95;93.81
52591;BME280;38483;42.620;25.394;2023-03-01T06:47:49;97637.38;;;7.07;94.29
52591;BME280;38483;42.620;25.394;2023-03-01T06:50:17;97637.25;;;7.11;94.66
52591;BME280;38483;42.620;25.394;2023-03-01T06:52:44;97636.34;;;7.14;93.43
52591;BME280;38483;42.620;25.394;2023-03-01T06:55:12;97641.03;;;6.97;93.41
52591;BME280;38483;42.620;25.394;2023-03-01T06:57:40;97639.25;;;7.00;93.96
52591;BME280;38483;42.620;25.394;2023-03-01T07:00:07;97630.69;;;7.00;94.24
52591;BME280;38483;42.620;25.394;2023-03-01T07:02:35;97639.22;;;7.02;93.97
52591;BME280;38483;42.620;25.394;2023-03-01T07:05:02;97643.75;;;6.91;94.03
52591;BME280;38483;42.620;25.394;2023-03-01T07:07:29;97636.78;;;6.96;93.48
52591;BME280;38483;42.620;25.394;2023-03-01T07:09:56;97644.69;;;6.87;93.40
52591;BME280;38483;42.620;25.394;2023-03-01T07:12:23;97640.16;;;6.98;93.20
52591;BME280;38483;42.620;25.394;2023-03-01T07:14:50;97639.53;;;6.87;93.63
52591;BME280;38483;42.620;25.394;2023-03-01T07:17:17;97648.84;;;6.94;93.53
52591;BME280;38483;42.620;25.394;2023-03-01T07:19:45;97634.28;;;6.91;94.20
52591;BME280;38483;42.620;25.394;2023-03-01T07:22:12;97638.13;;;6.72;94.29
52591;BME280;38483;42.620;25.394;2023-03-01T07:24:41;97646.25;;;6.94;94.20
52591;BME280;38483;42.620;25.394;2023-03-01T07:27:07;97631.00;;;6.85;94.59
52591;BME280;38483;42.620;25.394;2023-03-01T07:29:34;97640.16;;;6.98;93.09
52591;BME280;38483;42.620;25.394;2023-03-01T07:32:04;97645.09;;;7.07;92.23
52591;BME280;38483;42.620;25.394;2023-03-01T07:34:32;97640.16;;;6.98;92.89
52591;BME280;38483;42.620;25.394;2023-03-01T07:36:59;97644.53;;;6.94;92.10
52591;BME280;38483;42.620;25.394;2023-03-01T07:39:26;97641.25;;;6.86;92.13
52591;BME280;38483;42.620;25.394;2023-03-01T07:41:53;97626.81;;;6.81;91.72
52591;BME280;38483;42.620;25.394;2023-03-01T07:44:21;97624.91;;;6.89;91.47
52591;BME280;38483;42.620;25.394;2023-03-01T07:46:49;97617.47;;;7.15;91.25
52591;BME280;38483;42.620;25.394;2023-03-01T07:49:16;97612.16;;;7.21;91.57
52591;BME280;38483;42.620;25.394;2023-03-01T07:51:43;97622.53;;;7.18;90.14
52591;BME280;38483;42.620;25.394;2023-03-01T07:54:10;97619.50;;;7.37;90.39
52591;BME280;38483;42.620;25.394;2023-03-01T07:56:37;97625.75;;;7.26;90.81
52591;BME280;38483;42.620;25.394;2023-03-01T07:59:04;97615.59;;;7.20;90.50
52591;BME280;38483;42.620;25.394;2023-03-01T08:01:31;97631.00;;;7.23;90.22
52591;BME280;38483;42.620;25.394;2023-03-01T08:03:58;97621.66;;;7.17;90.19
52591;BME280;38483;42.620;25.394;2023-03-01T08:06:25;97623.09;;;7.30;90.76
52591;BME280;38483;42.620;25.394;2023-03-01T08:08:53;97622.09;;;7.36;89.53
52591;BME280;38483;42.620;25.394;2023-03-01T08:11:22;97624.41;;;7.47;89.63
52591;BME280;38483;42.620;25.394;2023-03-01T08:13:50;97626.31;;;7.38;89.53
52591;BME280;38483;42.620;25.394;2023-03-01T08:16:19;97630.31;;;7.50;89.28
52591;BME280;38483;42.620;25.394;2023-03-01T08:18:46;97625.19;;;7.50;90.23
52591;BME280;38483;42.620;25.394;2023-03-01T08:21:22;97612.50;;;7.43;89.86
52591;BME280;38483;42.620;25.394;2023-03-01T08:23:49;97612.28;;;7.52;89.81
52591;BME280;38483;42.620;25.394;2023-03-01T08:26:18;97610.66;;;7.46;89.55
52591;BME280;38483;42.620;25.394;2023-03-01T08:28:47;97619.03;;;7.56;89.50
52591;BME280;38483;42.620;25.394;2023-03-01T08:31:18;97627.94;;;7.43;89.22
52591;BME280;38483;42.620;25.394;2023-03-01T08:33:47;97623.75;;;7.38;90.24
52591;BME280;38483;42.620;25.394;2023-03-01T08:36:27;97622.09;;;7.36;89.70
52591;BME280;38483;42.620;25.394;2023-03-01T08:38:55;97625.94;;;7.55;90.16
52591;BME280;38483;42.620;25.394;2023-03-01T08:41:23;97631.97;;;7.54;89.79
52591;BME280;38483;42.620;25.394;2023-03-01T08:43:51;97630.56;;;7.41;89.38
52591;BME280;38483;42.620;25.394;2023-03-01T08:46:19;97625.06;;;7.56;89.46
52591;BME280;38483;42.620;25.394;2023-03-01T08:48:46;97619.81;;;7.59;89.47
52591;BME280;38483;42.620;25.394;2023-03-01T08:51:15;97613.56;;;7.34;89.49
52591;BME280;38483;42.620;25.394;2023-03-01T08:53:45;97629.47;;;7.51;89.73
52591;BME280;38483;42.620;25.394;2023-03-01T08:56:15;97630.28;;;7.53;89.64
52591;BME280;38483;42.620;25.394;2023-03-01T08:58:47;97636.16;;;7.58;88.88
52591;BME280;38483;42.620;25.394;2023-03-01T09:01:17;97633.75;;;7.52;89.92
52591;BME280;38483;42.620;25.394;2023-03-01T09:03:45;97621.53;;;7.60;90.18
52591;BME280;38483;42.620;25.394;2023-03-01T09:06:12;97625.88;;;7.57;90.39
52591;BME280;38483;42.620;25.394;2023-03-01T09:08:42;97634.00;;;7.75;89.05
52591;BME280;38483;42.620;25.394;2023-03-01T09:11:12;97623.56;;;7.80;89.55
52591;BME280;38483;42.620;25.394;2023-03-01T09:13:39;97630.72;;;7.69;88.98
52591;BME280;38483;42.620;25.394;2023-03-01T09:16:11;97620.47;;;7.67;89.42
52591;BME280;38483;42.620;25.394;2023-03-01T09:18:39;97632.38;;;7.71;89.58
52591;BME280;38483;42.620;25.394;2023-03-01T09:21:14;97633.19;;;7.73;89.82
52591;BME280;38483;42.620;25.394;2023-03-01T09:23:44;97633.44;;;7.64;89.62
52591;BME280;38483;42.620;25.394;2023-03-01T09:26:14;97628.28;;;7.64;90.33
52591;BME280;38483;42.620;25.394;2023-03-01T09:28:43;97620.50;;;7.66;89.99
52591;BME280;38483;42.620;25.394;2023-03-01T09:31:14;97625.06;;;7.56;89.92
52591;BME280;38483;42.620;25.394;2023-03-01T09:33:45;97605.91;;;7.29;90.25
52591;BME280;38483;42.620;25.394;2023-03-01T09:36:14;97614.06;;;7.48;89.37
52591;BME280;38483;42.620;25.394;2023-03-01T09:38:42;97613.41;;;7.40;90.18
52591;BME280;38483;42.620;25.394;2023-03-01T09:47:00;97601.06;;;7.54;90.06
52591;BME280;38483;42.620;25.394;2023-03-01T09:49:30;97611.38;;;7.54;89.75
52591;BME280;38483;42.620;25.394;2023-03-01T09:55:08;97613.19;;;7.49;91.78
52591;BME280;38483;42.620;25.394;2023-03-01T09:57:50;97611.06;;;7.65;90.98
52591;BME280;38483;42.620;25.394;2023-03-01T10:00:33;97598.28;;;7.62;91.15
52591;BME280;38483;42.620;25.394;2023-03-01T10:03:41;97597.25;;;7.67;91.90
52591;BME280;38483;42.620;25.394;2023-03-01T10:06:15;97603.16;;;7.72;91.58
52591;BME280;38483;42.620;25.394;2023-03-01T10:09:15;97592.03;;;7.70;90.44
52591;BME280;38483;42.620;25.394;2023-03-01T10:11:50;97600.25;;;7.84;91.05
52591;BME280;38483;42.620;25.394;2023-03-01T10:19:45;97589.38;;;7.73;91.17
52591;BME280;38483;42.620;25.394;2023-03-01T10:22:17;97596.03;;;7.48;91.06
52591;BME280;38483;42.620;25.394;2023-03-01T10:24:48;97583.63;;;7.64;91.27
52591;BME280;38483;42.620;25.394;2023-03-01T10:27:29;97579.00;;;7.76;91.53
52591;BME280;38483;42.620;25.394;2023-03-01T10:30:13;97577.94;;;7.83;90.68
52591;BME280;38483;42.620;25.394;2023-03-01T10:32:44;97572.03;;;7.80;90.03
52591;BME280;38483;42.620;25.394;2023-03-01T10:35:29;97564.50;;;7.71;90.50
52591;BME280;38483;42.620;25.394;2023-03-01T10:38:13;97564.22;;;7.83;90.23
52591;BME280;38483;42.620;25.394;2023-03-01T10:43:49;97565.72;;;7.90;90.00
52591;BME280;38483;42.620;25.394;2023-03-01T10:46:31;97567.31;;;7.95;89.48
52591;BME280;38483;42.620;25.394;2023-03-01T10:51:41;97564.00;;;7.90;89.31
52591;BME280;38483;42.620;25.394;2023-03-01T10:54:24;97554.66;;;7.86;88.90
52591;BME280;38483;42.620;25.394;2023-03-01T10:56:54;97559.25;;;8.06;88.89
52591;BME280;38483;42.620;25.394;2023-03-01T11:02:16;97544.25;;;7.89;89.84
52591;BME280;38483;42.620;25.394;2023-03-01T11:05:19;97539.53;;;7.74;89.26
52591;BME280;38483;42.620;25.394;2023-03-01T11:10:23;97536.69;;;7.83;89.73
52591;BME280;38483;42.620;25.394;2023-03-01T11:12:52;97524.00;;;7.76;89.93
52591;BME280;38483;42.620;25.394;2023-03-01T11:15:27;97541.06;;;7.80;90.07
52591;BME280;38483;42.620;25.394;2023-03-01T11:17:56;97527.50;;;7.73;90.86
52591;BME280;38483;42.620;25.394;2023-03-01T11:20:38;97541.19;;;7.77;90.95
52591;BME280;38483;42.620;25.394;2023-03-01T11:23:11;97532.75;;;7.70;90.96
52591;BME280;38483;42.620;25.394;2023-03-01T11:25:42;97524.50;;;7.58;90.52
52591;BME280;38483;42.620;25.394;2023-03-01T11:28:17;97528.41;;;7.71;90.69
52591;BME280;38483;42.620;25.394;2023-03-01T11:31:01;97530.81;;;7.78;90.67
52591;BME280;38483;42.620;25.394;2023-03-01T11:33:54;97525.03;;;7.69;90.90
52591;BME280;38483;42.620;25.394;2023-03-01T11:36:39;97521.53;;;7.71;91.33
52591;BME280;38483;42.620;25.394;2023-03-01T11:42:20;97518.44;;;7.91;91.19
52591;BME280;38483;42.620;25.394;2023-03-01T11:44:54;97508.41;;;7.80;91.08
52591;BME280;38483;42.620;25.394;2023-03-01T11:47:33;97511.13;;;7.76;91.10
52591;BME280;38483;42.620;25.394;2023-03-01T11:50:16;97513.63;;;7.79;91.45
52591;BME280;38483;42.620;25.394;2023-03-01T11:53:06;97506.06;;;7.71;92.16
52591;BME280;38483;42.620;25.394;2023-03-01T12:10:01;97491.66;;;7.32;95.09
52591;BME280;38483;42.620;25.394;2023-03-01T12:12:36;97489.50;;;7.49;95.30
52591;BME280;38483;42.620;25.394;2023-03-01T12:42:37;97403.78;;;6.78;94.78
52591;BME280;38483;42.620;25.394;2023-03-01T12:48:35;97483.66;;;7.43;94.50
52591;BME280;38483;42.620;25.394;2023-03-01T12:51:16;97482.00;;;7.40;93.41
52591;BME280;38483;42.620;25.394;2023-03-01T12:53:47;97485.91;;;7.55;94.33
52591;BME280;38483;42.620;25.394;2023-03-01T12:56:18;97463.91;;;7.43;93.80
52591;BME280;38483;42.620;25.394;2023-03-01T13:17:52;97470.03;;;7.39;93.77
52591;BME280;38483;42.620;25.394;2023-03-01T13:20:25;97466.69;;;7.35;94.19
52591;BME280;38483;42.620;25.394;2023-03-01T13:23:02;97480.97;;;7.47;94.64
52591;BME280;38483;42.620;25.394;2023-03-01T13:25:30;97476.69;;;7.46;94.59
52591;BME280;38483;42.620;25.394;2023-03-01T13:28:40;97479.13;;;7.52;94.43
52591;BME280;38483;42.620;25.394;2023-03-01T13:38:58;97459.94;;;7.30;92.27
52591;BME280;38483;42.620;25.394;2023-03-01T13:44:21;97463.66;;;7.52;93.04
52591;BME280;38483;42.620;25.394;2023-03-01T13:46:58;97456.22;;;7.42;92.65
52591;BME280;38483;42.620;25.394;2023-03-01T13:49:29;97466.06;;;7.26;93.15
52591;BME280;38483;42.620;25.394;2023-03-01T13:52:50;97455.38;;;7.09;94.64
52591;BME280;38483;42.620;25.394;2023-03-01T13:55:38;97460.91;;;7.26;94.75
52591;BME280;38483;42.620;25.394;2023-03-01T13:58:26;97462.63;;;7.25;93.99
52591;BME280;38483;42.620;25.394;2023-03-01T14:03:24;97455.88;;;7.23;93.90
52591;BME280;38483;42.620;25.394;2023-03-01T14:06:07;97458.97;;;7.34;93.45
52591;BME280;38483;42.620;25.394;2023-03-01T14:08:43;97471.84;;;7.35;94.73
52591;BME280;38483;42.620;25.394;2023-03-01T14:16:53;97467.34;;;7.42;93.86
52591;BME280;38483;42.620;25.394;2023-03-01T14:19:30;97473.31;;;7.44;93.64
52591;BME280;38483;42.620;25.394;2023-03-01T14:24:47;97465.69;;;7.41;93.90
52591;BME280;38483;42.620;25.394;2023-03-01T14:27:16;97463.06;;;7.43;93.12
52591;BME280;38483;42.620;25.394;2023-03-01T14:29:54;97467.06;;;7.54;93.08
52591;BME280;38483;42.620;25.394;2023-03-01T14:32:25;97468.31;;;7.70;92.86
52591;BME280;38483;42.620;25.394;2023-03-01T14:34:53;97483.38;;;7.53;92.53
52591;BME280;38483;42.620;25.394;2023-03-01T14:39:51;97457.69;;;7.18;93.58
52591;BME280;38483;42.620;25.394;2023-03-01T14:42:21;97477.00;;;7.35;93.22
52591;BME280;38483;42.620;25.394;2023-03-01T14:44:51;97481.19;;;7.38;93.91
52591;BME280;38483;42.620;25.394;2023-03-01T14:47:28;97462.28;;;7.39;93.56
52591;BME280;38483;42.620;25.394;2023-03-01T14:50:03;97462.28;;;7.39;92.88
52591;BME280;38483;42.620;25.394;2023-03-01T14:52:34;97474.78;;;7.54;93.45
52591;BME280;38483;42.620;25.394;2023-03-01T14:55:05;97481.38;;;7.63;93.09
52591;BME280;38483;42.620;25.394;2023-03-01T14:57:34;97482.13;;;7.68;93.00
52591;BME280;38483;42.620;25.394;2023-03-01T15:00:03;97484.59;;;7.72;93.10
52591;BME280;38483;42.620;25.394;2023-03-01T15:02:34;97483.44;;;7.82;92.52
52591;BME280;38483;42.620;25.394;2023-03-01T15:05:02;97476.06;;;7.69;93.05
52591;BME280;38483;42.620;25.394;2023-03-01T15:07:38;97482.34;;;7.60;92.90
52591;BME280;38483;42.620;25.394;2023-03-01T15:10:14;97480.75;;;7.56;93.27
52591;BME280;38483;42.620;25.394;2023-03-01T15:12:42;97484.94;;;7.59;93.26
52591;BME280;38483;42.620;25.394;2023-03-01T15:15:41;97483.25;;;7.58;92.69
52591;BME280;38483;42.620;25.394;2023-03-01T15:18:16;97485.16;;;7.51;92.33
52591;BME280;38483;42.620;25.394;2023-03-01T15:20:44;97470.63;;;7.49;93.71
52591;BME280;38483;42.620;25.394;2023-03-01T15:23:24;97475.72;;;7.50;93.56
52591;BME280;38483;42.620;25.394;2023-03-01T15:25:53;97473.19;;;7.49;93.47
52591;BME280;38483;42.620;25.394;2023-03-01T15:28:27;97471.53;;;7.46;92.98